Hauptseite
METAR-TAF:

METAR-TAF

Flughäfen :

Flughafen Stockholm/Arlanda

Stockholm-Arlanda, Schweden

Breite: 59-39N, Länge: 017-57E, Höhe: 38 m

Beobachtung

Neuester Wetterbericht von vor 28 Minuten, um 05:20 UTC
Wind 12 kt aus Süd/Südwest
Temperatur 16°C
Luftfeuchtigkeit 82%
Luftdruck 1004 hPa
Sichtweite 10 km oder mehr
Leicht bewölkt in der Höhe von 2700 ft
Aufgelockert bewölkt in der Höhe von 3800 ft

METAR: ESSA 190520Z 21012KT 9999 FEW027 SCT038 16/13 Q1004 NOSIG

Zeit: 07:48 (05:48 UTC)

Prognose

Neuester Wetterbericht von vor 18 Minuten, um 05:30 UTC
Gültige Prognose vom 19 um 06 UTC bis 20 um 06 UTC
Wind 12 kt aus Südwest
Sichtweite 10 km oder mehr
Aufgelockert bewölkt in der Höhe von 2500 ft
Durchbrochene Bewölkung in der Höhe von 4000 ft
Zeitweise
vom 19 um 08 UTC bis 19 um 16 UTC
Wind 15 kt aus West/Südwest, Böen bis zu 25 kt

TAF: ESSA 190530Z 1906/2006 22012KT 9999 SCT025 BKN040 TEMPO 1908/1916 24015G25KT

Wetterbeobachtungen und Prognosen von mehr als 4000 Flughäfen (METAR und TAF Bericht).

Die verfügbaren Stationen werden durch gelbe und rote Markierungen auf der Karte dargestellt.

Führen Sie die Maus auf sie, um den Namen der Station zu sehen.

Darauf klicken, um die Beobachtung von Wetterbeobachtungen und Prognosen zu sehen.

Um die Karte zu ändern : klicken Sie auf den grünen Tasten mit einem schwarzen Kreuz Zum Vergrößern, auf den grünen Button mit einem Gedankenstrich zu verkleinern, oder auf die grünen Pfeile für benachbarte Karten.


METAR-TAF: